createdAt,value
2017-06-03T00:01:39.652Z,52.90
2017-06-03T00:04:10.113Z,53.00
2017-06-03T00:06:40.560Z,53.00
2017-06-03T00:09:11.024Z,53.50
2017-06-03T00:11:41.470Z,53.50
2017-06-03T00:14:11.938Z,53.60
2017-06-03T00:16:42.194Z,53.80
2017-06-03T00:19:12.663Z,53.90
2017-06-03T00:21:43.117Z,53.90
2017-06-03T00:24:13.587Z,54.20
2017-06-03T00:26:44.051Z,54.50
2017-06-03T00:29:14.559Z,54.40
2017-06-03T00:31:45.002Z,54.50
2017-06-03T00:34:15.547Z,54.80
2017-06-03T00:36:46.064Z,55.00
2017-06-03T00:39:16.625Z,54.90
2017-06-03T00:41:47.058Z,55.40
2017-06-03T00:44:17.527Z,55.50
2017-06-03T00:46:49.214Z,55.50
2017-06-03T00:49:19.694Z,55.70
2017-06-03T00:51:50.159Z,55.60
2017-06-03T00:54:20.624Z,55.70
2017-06-03T00:56:51.084Z,55.50
2017-06-03T00:59:21.555Z,56.00
2017-06-03T01:01:51.999Z,55.80
2017-06-03T01:04:22.480Z,56.00
2017-06-03T01:06:52.927Z,56.20
2017-06-03T01:09:23.424Z,56.30
2017-06-03T01:11:53.863Z,56.30
2017-06-03T01:14:24.124Z,56.80
2017-06-03T01:16:54.571Z,56.90
2017-06-03T01:19:24.827Z,57.00
2017-06-03T01:21:55.295Z,57.10
2017-06-03T01:24:25.759Z,57.30
2017-06-03T01:26:56.222Z,57.50
2017-06-03T01:29:26.672Z,57.70
2017-06-03T01:31:57.128Z,58.00
2017-06-03T01:34:27.600Z,58.20
2017-06-03T01:36:58.057Z,58.40
2017-06-03T01:39:28.517Z,58.40
2017-06-03T01:41:58.970Z,58.50
2017-06-03T01:44:29.426Z,58.90
2017-06-03T01:46:59.903Z,59.20
2017-06-03T01:49:30.357Z,58.90
2017-06-03T01:52:00.496Z,59.20
2017-06-03T01:54:30.995Z,59.30
2017-06-03T01:57:01.476Z,59.50
2017-06-03T01:59:31.921Z,59.70
2017-06-03T02:02:02.423Z,60.00
2017-06-03T02:04:32.716Z,60.10
2017-06-03T02:07:03.176Z,60.30
2017-06-03T02:09:33.647Z,60.10
2017-06-03T02:12:04.177Z,60.50
2017-06-03T02:14:34.682Z,60.50
2017-06-03T02:17:05.254Z,60.80
2017-06-03T02:19:35.840Z,61.20
2017-06-03T02:22:06.411Z,61.40
2017-06-03T02:24:37.034Z,61.40
2017-06-03T02:27:07.521Z,61.50
2017-06-03T02:29:38.216Z,61.70
2017-06-03T02:32:08.712Z,61.90
2017-06-03T02:34:39.157Z,62.00
2017-06-03T02:37:09.691Z,62.20
2017-06-03T02:39:40.159Z,63.10
2017-06-03T02:42:10.677Z,62.50
2017-06-03T02:44:41.125Z,62.70
2017-06-03T02:47:11.600Z,62.90
2017-06-03T02:49:42.055Z,62.90
2017-06-03T02:52:12.542Z,63.10
2017-06-03T02:54:43.024Z,63.10
2017-06-03T02:57:13.680Z,63.60
2017-06-03T02:59:44.119Z,63.50
2017-06-03T03:02:14.591Z,63.90
2017-06-03T03:04:45.163Z,64.10
2017-06-03T03:07:15.626Z,64.10
2017-06-03T03:09:46.094Z,64.10
2017-06-03T03:12:16.549Z,64.10
2017-06-03T03:14:47.008Z,64.00
2017-06-03T03:17:17.490Z,63.50
2017-06-03T03:19:47.957Z,63.60
2017-06-03T03:22:18.431Z,64.10
2017-06-03T03:24:48.897Z,64.40
2017-06-03T03:27:19.378Z,64.50
2017-06-03T03:29:49.822Z,64.60
2017-06-03T03:32:20.412Z,64.30
2017-06-03T03:34:50.890Z,64.70
2017-06-03T03:37:21.346Z,65.00
2017-06-03T03:39:51.810Z,65.10
2017-06-03T03:42:22.278Z,65.30
2017-06-03T03:44:52.766Z,65.30
2017-06-03T03:47:23.254Z,65.60
2017-06-03T03:49:53.769Z,65.70
2017-06-03T03:52:24.254Z,65.30
2017-06-03T03:54:54.706Z,65.00
2017-06-03T03:57:25.303Z,64.70
2017-06-03T03:59:55.760Z,64.70
2017-06-03T04:02:26.242Z,65.20
2017-06-03T04:04:56.680Z,65.80
2017-06-03T04:07:27.168Z,65.30
2017-06-03T04:09:57.723Z,65.20
2017-06-03T04:12:28.464Z,64.30
2017-06-03T04:14:58.911Z,64.00
2017-06-03T04:17:29.380Z,63.70
2017-06-03T04:19:59.828Z,64.30
2017-06-03T04:22:30.334Z,64.10
2017-06-03T04:25:00.787Z,64.40
2017-06-03T04:27:31.411Z,63.80
2017-06-03T04:30:01.993Z,64.10
2017-06-03T04:32:32.474Z,63.90
2017-06-03T04:35:03.154Z,63.70
2017-06-03T04:37:33.638Z,63.10
2017-06-03T04:40:04.080Z,63.20
2017-06-03T04:42:34.680Z,63.20
2017-06-03T04:45:05.234Z,63.40
2017-06-03T04:47:35.726Z,63.40
2017-06-03T04:50:06.232Z,63.10
2017-06-03T04:52:36.699Z,62.30
2017-06-03T04:55:07.173Z,62.30
2017-06-03T04:57:37.642Z,61.50
2017-06-03T05:00:08.091Z,61.30
2017-06-03T05:02:38.351Z,61.80
2017-06-03T05:05:08.824Z,61.70
2017-06-03T05:07:39.299Z,62.00
2017-06-03T05:10:09.764Z,61.50
2017-06-03T05:12:40.233Z,61.70
2017-06-03T05:15:10.688Z,60.90
2017-06-03T05:17:41.195Z,61.10
2017-06-03T05:20:11.660Z,60.70
2017-06-03T05:22:42.146Z,59.90
2017-06-03T05:25:12.739Z,60.30
2017-06-03T05:27:42.967Z,60.10
2017-06-03T05:30:13.430Z,60.20
2017-06-03T05:32:43.924Z,59.80
2017-06-03T05:35:14.182Z,59.60
2017-06-03T05:37:44.650Z,59.20
2017-06-03T05:40:15.128Z,57.80
2017-06-03T05:42:45.485Z,54.90
2017-06-03T05:45:16.106Z,53.70
2017-06-03T05:47:46.639Z,53.70
2017-06-03T05:50:16.942Z,52.90
2017-06-03T05:52:47.433Z,51.60
2017-06-03T05:55:17.957Z,51.00
2017-06-03T05:57:48.154Z,50.80
2017-06-03T06:00:18.357Z,49.70
2017-06-03T06:02:48.601Z,49.30
2017-06-03T06:05:19.101Z,49.10
2017-06-03T06:07:49.419Z,48.50
2017-06-03T06:10:19.444Z,47.50
2017-06-03T06:12:49.446Z,47.50
2017-06-03T06:15:19.739Z,46.90
2017-06-03T06:17:49.954Z,47.50
2017-06-03T06:20:20.170Z,46.90
2017-06-03T06:22:50.414Z,47.30
2017-06-03T06:25:20.607Z,46.70
2017-06-03T06:27:50.980Z,46.50
2017-06-03T06:30:21.203Z,46.70
2017-06-03T06:32:51.501Z,46.40
2017-06-03T06:35:21.687Z,45.10
2017-06-03T06:37:51.907Z,44.90
2017-06-03T06:40:22.083Z,44.50
2017-06-03T06:42:52.270Z,44.10
2017-06-03T06:45:23.224Z,44.60
2017-06-03T06:47:53.480Z,44.30
2017-06-03T06:50:23.701Z,43.70
2017-06-03T06:52:53.998Z,43.30
2017-06-03T06:55:24.186Z,42.50
2017-06-03T06:57:54.458Z,43.10
2017-06-03T07:00:25.097Z,43.20
2017-06-03T07:02:55.062Z,43.80
2017-06-03T07:05:25.439Z,44.10
2017-06-03T07:07:57.292Z,42.60
2017-06-03T07:10:27.648Z,42.70
2017-06-03T07:12:57.831Z,41.40
2017-06-03T07:15:28.027Z,42.20
2017-06-03T07:18:00.213Z,43.10
2017-06-03T07:20:30.568Z,43.70
2017-06-03T07:23:00.857Z,43.80
2017-06-03T07:25:31.197Z,43.90
2017-06-03T07:28:01.408Z,43.90
2017-06-03T07:30:31.598Z,44.60
2017-06-03T07:33:01.813Z,45.80
2017-06-03T07:35:32.748Z,44.50
2017-06-03T07:38:38.535Z,44.50
2017-06-03T07:41:08.064Z,44.30
2017-06-03T07:43:38.320Z,44.70
2017-06-03T07:46:08.809Z,44.70
2017-06-03T07:48:39.688Z,44.30
2017-06-03T07:51:12.301Z,44.00
2017-06-03T07:53:43.097Z,43.60
2017-06-03T07:56:14.543Z,42.50
2017-06-03T07:58:44.977Z,42.50
2017-06-03T08:01:14.828Z,42.80
2017-06-03T08:03:44.023Z,43.20
2017-06-03T08:06:13.483Z,42.90
2017-06-03T08:08:42.884Z,42.80
2017-06-03T08:11:12.284Z,41.10
2017-06-03T08:13:41.704Z,41.70
2017-06-03T08:16:11.445Z,40.30
2017-06-03T08:18:40.906Z,39.80
2017-06-03T08:21:10.352Z,39.60
2017-06-03T08:23:39.776Z,39.10
2017-06-03T08:26:09.937Z,39.60
2017-06-03T08:28:39.360Z,40.00
2017-06-03T08:31:08.869Z,40.40
2017-06-03T08:33:38.700Z,40.70
2017-06-03T08:36:09.903Z,40.30
2017-06-03T08:38:39.552Z,39.90
2017-06-03T08:41:09.061Z,39.10
2017-06-03T08:43:38.450Z,37.70
2017-06-03T08:46:08.184Z,38.30
2017-06-03T08:48:40.139Z,39.80
2017-06-03T08:51:11.992Z,38.30
2017-06-03T08:53:43.786Z,37.80
2017-06-03T08:56:13.339Z,37.50
2017-06-03T08:58:42.735Z,38.30
2017-06-03T09:01:12.151Z,38.40
2017-06-03T09:03:41.538Z,37.90
2017-06-03T09:06:10.939Z,38.30
2017-06-03T09:08:40.351Z,38.00
2017-06-03T09:11:09.755Z,38.20
2017-06-03T09:13:39.216Z,39.00
2017-06-03T09:16:09.386Z,38.80
2017-06-03T09:18:38.837Z,38.80
2017-06-03T09:21:08.266Z,39.20
2017-06-03T09:23:37.683Z,39.00
2017-06-03T09:26:07.107Z,38.90
2017-06-03T09:28:36.509Z,39.50
2017-06-03T09:31:06.070Z,38.90
2017-06-03T09:33:35.503Z,38.70
2017-06-03T09:36:04.914Z,40.10
2017-06-03T09:38:34.310Z,40.40
2017-06-03T09:41:03.767Z,41.60
2017-06-03T09:43:33.935Z,42.00
2017-06-03T09:46:03.390Z,42.00
2017-06-03T09:48:33.562Z,42.10
2017-06-03T09:51:03.007Z,42.10
2017-06-03T09:53:32.431Z,42.40
2017-06-03T09:56:01.835Z,42.70
2017-06-03T09:58:32.022Z,43.70
2017-06-03T10:01:01.081Z,43.60
2017-06-03T10:03:30.499Z,44.00
2017-06-03T10:05:59.891Z,44.60
2017-06-03T10:08:29.332Z,44.80
2017-06-03T10:10:59.499Z,46.90
2017-06-03T10:13:28.936Z,46.90
2017-06-03T10:15:58.339Z,46.70
2017-06-03T10:18:27.742Z,45.00
2017-06-03T10:20:57.146Z,45.20
2017-06-03T10:23:27.324Z,45.30
2017-06-03T10:25:56.743Z,45.20
2017-06-03T10:28:26.148Z,45.40
2017-06-03T10:30:55.568Z,45.70
2017-06-03T10:33:24.975Z,45.70
2017-06-03T10:35:54.407Z,46.00
2017-06-03T10:38:23.857Z,46.30
2017-06-03T10:40:53.260Z,46.10
2017-06-03T10:43:22.699Z,47.60
2017-06-03T10:45:52.132Z,47.70
2017-06-03T10:48:21.560Z,52.90
2017-06-03T10:50:50.950Z,53.70
2017-06-03T10:53:20.381Z,54.20
2017-06-03T10:55:49.788Z,50.70
2017-06-03T10:58:19.207Z,54.40
2017-06-03T11:00:48.404Z,54.00
2017-06-03T11:03:17.840Z,56.20
2017-06-03T11:05:48.017Z,59.60
2017-06-03T11:08:17.417Z,59.70
2017-06-03T11:10:46.842Z,60.00
2017-06-03T11:13:16.241Z,61.10
2017-06-03T11:15:45.656Z,63.60
2017-06-03T11:18:15.844Z,66.50
2017-06-03T11:20:45.268Z,66.40
2017-06-03T11:23:14.673Z,71.40
2017-06-03T11:25:44.115Z,69.60
2017-06-03T11:28:13.516Z,71.30
2017-06-03T11:30:42.969Z,72.50
2017-06-03T11:33:12.390Z,72.50
2017-06-03T11:35:41.814Z,74.80
2017-06-03T11:38:11.989Z,73.20
2017-06-03T11:40:41.460Z,73.20
2017-06-03T11:43:10.888Z,74.60
2017-06-03T11:45:40.308Z,73.40
2017-06-03T11:48:09.827Z,69.50
2017-06-03T11:50:39.332Z,70.30
2017-06-03T11:53:08.819Z,69.60
2017-06-03T11:55:38.279Z,77.30
2017-06-03T11:58:07.738Z,78.40
2017-06-03T12:00:37.924Z,78.20
2017-06-03T12:03:07.352Z,78.30
2017-06-03T12:05:36.775Z,82.10
2017-06-03T12:08:06.955Z,81.50
2017-06-03T12:10:36.400Z,81.50
2017-06-03T12:13:05.852Z,79.00
2017-06-03T12:15:35.268Z,78.10
2017-06-03T12:18:04.875Z,76.80
2017-06-03T12:20:35.079Z,77.50
2017-06-03T12:23:04.502Z,79.10
2017-06-03T12:25:33.950Z,80.40
2017-06-03T12:28:03.355Z,76.70
2017-06-03T12:30:32.783Z,77.70
2017-06-03T12:33:02.202Z,78.30
2017-06-03T12:35:31.634Z,79.00
2017-06-03T12:38:01.040Z,80.40
2017-06-03T12:40:30.472Z,81.90
2017-06-03T12:42:59.879Z,80.80
2017-06-03T12:45:29.303Z,79.30
2017-06-03T12:47:58.737Z,80.60
2017-06-03T12:50:28.383Z,77.70
2017-06-03T12:52:58.968Z,78.30
2017-06-03T12:55:29.655Z,78.30
2017-06-03T12:57:59.087Z,80.00
2017-06-03T13:00:29.283Z,80.40
2017-06-03T13:02:58.715Z,80.20
2017-06-03T13:05:28.988Z,80.10
2017-06-03T13:07:58.424Z,80.00
2017-06-03T13:10:27.870Z,78.50
2017-06-03T13:12:57.345Z,77.00
2017-06-03T13:15:27.532Z,80.50
2017-06-03T13:17:57.223Z,80.50
2017-06-03T13:20:26.748Z,79.20
2017-06-03T13:22:56.180Z,77.80
2017-06-03T13:25:25.596Z,76.00
2017-06-03T13:27:55.783Z,78.10
2017-06-03T13:30:25.276Z,78.00
2017-06-03T13:32:54.710Z,77.80
2017-06-03T13:35:24.172Z,82.50
2017-06-03T13:37:53.573Z,81.10
2017-06-03T13:40:22.996Z,81.50
2017-06-03T13:42:52.413Z,81.20
2017-06-03T13:45:21.940Z,81.60
2017-06-03T13:47:52.139Z,80.60
2017-06-03T13:50:21.864Z,80.60
2017-06-03T13:52:52.063Z,80.40
2017-06-03T13:55:21.537Z,80.40
2017-06-03T13:57:50.952Z,81.70
2017-06-03T14:00:20.610Z,77.90
2017-06-03T14:02:49.863Z,77.80
2017-06-03T14:05:19.295Z,74.00
2017-06-03T14:07:48.912Z,77.50
2017-06-03T14:10:18.380Z,74.30
2017-06-03T14:12:47.808Z,75.20
2017-06-03T14:15:17.220Z,75.90
2017-06-03T14:17:46.674Z,76.30
2017-06-03T14:20:16.100Z,77.10
2017-06-03T14:22:46.027Z,74.30
2017-06-03T14:25:15.581Z,74.00
2017-06-03T14:27:45.874Z,71.60
2017-06-03T14:30:18.412Z,71.50
2017-06-03T14:32:47.843Z,71.60
2017-06-03T14:35:17.287Z,71.90
2017-06-03T14:37:47.554Z,67.70
2017-06-03T14:40:16.947Z,67.70
2017-06-03T14:42:46.421Z,69.60
2017-06-03T14:45:15.838Z,67.80
2017-06-03T14:47:45.600Z,63.00
2017-06-03T14:50:15.841Z,63.50
2017-06-03T14:52:45.402Z,64.10
2017-06-03T14:55:14.909Z,65.40
2017-06-03T14:57:45.014Z,66.90
2017-06-03T15:00:14.759Z,65.50
2017-06-03T15:02:45.082Z,60.60
2017-06-03T15:05:15.334Z,60.60
2017-06-03T15:07:45.868Z,60.10
2017-06-03T15:10:15.312Z,60.10
2017-06-03T15:12:44.723Z,59.60
2017-06-03T15:15:14.191Z,59.40
2017-06-03T15:17:44.354Z,56.00
2017-06-03T15:20:13.951Z,56.00
2017-06-03T15:22:43.357Z,57.80
2017-06-03T15:25:12.938Z,56.20
2017-06-03T15:27:43.126Z,56.80
2017-06-03T15:30:13.323Z,58.80
2017-06-03T15:32:42.729Z,58.70
2017-06-03T15:35:12.166Z,58.80
2017-06-03T15:37:41.572Z,57.50
2017-06-03T15:40:10.990Z,58.70
2017-06-03T15:42:41.187Z,60.30
2017-06-03T15:45:10.619Z,60.20
2017-06-03T15:47:40.792Z,58.50
2017-06-03T15:50:10.237Z,58.50
2017-06-03T15:52:40.419Z,58.30
2017-06-03T15:55:09.670Z,58.30
2017-06-03T15:57:39.577Z,57.80
2017-06-03T16:00:09.753Z,57.20
2017-06-03T16:02:39.160Z,57.10
2017-06-03T16:05:08.617Z,57.30
2017-06-03T16:07:38.064Z,57.00
2017-06-03T16:10:07.465Z,56.50
2017-06-03T16:12:36.890Z,55.40
2017-06-03T16:15:07.062Z,57.60
2017-06-03T16:17:36.682Z,57.60
2017-06-03T16:20:06.076Z,58.10
2017-06-03T16:22:35.591Z,57.70
2017-06-03T16:25:04.984Z,57.70
2017-06-03T16:27:34.400Z,56.50
2017-06-03T16:30:03.839Z,57.90
2017-06-03T16:32:33.272Z,57.50
2017-06-03T16:35:03.458Z,58.60
2017-06-03T16:37:32.899Z,58.50
2017-06-03T16:40:02.372Z,59.00
2017-06-03T16:42:31.780Z,58.60
2017-06-03T16:45:01.191Z,58.80
2017-06-03T16:47:31.399Z,59.10
2017-06-03T16:50:00.799Z,59.10
2017-06-03T16:52:30.973Z,59.90
2017-06-03T16:55:00.385Z,59.80
2017-06-03T16:57:29.830Z,59.50
2017-06-03T16:59:59.256Z,59.20
2017-06-03T17:02:29.479Z,60.50
2017-06-03T17:04:59.647Z,59.60
2017-06-03T17:07:29.085Z,59.60
2017-06-03T17:09:58.510Z,59.80
2017-06-03T17:12:28.744Z,60.40
2017-06-03T17:14:58.163Z,60.30
2017-06-03T17:17:27.718Z,59.60
2017-06-03T17:19:57.164Z,59.70
2017-06-03T17:22:26.570Z,60.10
2017-06-03T17:24:56.020Z,60.40
2017-06-03T17:27:25.429Z,60.80
2017-06-03T17:29:54.874Z,60.30
2017-06-03T17:32:24.310Z,60.20
2017-06-03T17:34:53.725Z,60.60
2017-06-03T17:37:23.135Z,60.60
2017-06-03T17:39:52.536Z,61.70
2017-06-03T17:42:21.992Z,61.40
2017-06-03T17:44:52.160Z,62.00
2017-06-03T17:47:21.585Z,62.00
2017-06-03T17:49:51.049Z,61.80
2017-06-03T17:52:20.447Z,62.00
2017-06-03T17:54:49.876Z,62.20
2017-06-03T17:57:19.280Z,62.70
2017-06-03T17:59:48.808Z,63.30
2017-06-03T18:02:18.279Z,63.30
2017-06-03T18:04:47.694Z,64.00
2017-06-03T18:07:17.100Z,63.60
2017-06-03T18:09:46.624Z,64.60
2017-06-03T18:12:16.128Z,63.20
2017-06-03T18:14:45.548Z,63.80
2017-06-03T18:17:15.745Z,64.70
2017-06-03T18:19:45.172Z,64.60
2017-06-03T18:22:20.926Z,64.00
2017-06-03T18:24:50.957Z,65.40
2017-06-03T18:27:26.388Z,65.10
2017-06-03T18:29:56.571Z,64.60
2017-06-03T18:32:26.027Z,64.60
2017-06-03T18:34:56.222Z,65.40
2017-06-03T18:37:25.667Z,65.40
2017-06-03T18:39:55.102Z,65.00
2017-06-03T18:42:24.513Z,65.80
2017-06-03T18:44:54.718Z,65.70
2017-06-03T18:47:24.154Z,65.60
2017-06-03T18:49:53.580Z,66.00
2017-06-03T18:52:22.993Z,66.00
2017-06-03T18:54:52.409Z,66.30
2017-06-03T18:57:21.846Z,66.70
2017-06-03T18:59:51.063Z,66.60
2017-06-03T19:02:20.498Z,66.80
2017-06-03T19:04:49.904Z,68.00
2017-06-03T19:07:19.327Z,69.60
2017-06-03T19:09:48.726Z,69.80
2017-06-03T19:12:18.129Z,69.70
2017-06-03T19:14:47.561Z,70.10
2017-06-03T19:17:17.743Z,73.10
2017-06-03T19:19:47.171Z,73.10
2017-06-03T19:22:16.591Z,71.00
2017-06-03T19:24:46.800Z,72.60
2017-06-03T19:27:17.025Z,72.10
2017-06-03T19:29:47.233Z,72.90
2017-06-03T19:32:16.631Z,72.80
2017-06-03T19:34:46.042Z,74.60
2017-06-03T19:37:15.468Z,74.50
2017-06-03T19:39:44.875Z,72.00
2017-06-03T19:42:14.312Z,72.50
2017-06-03T19:44:43.730Z,73.50
2017-06-03T19:47:13.162Z,72.90
2017-06-03T19:49:42.576Z,72.90
2017-06-03T19:52:12.780Z,73.60
2017-06-03T19:54:42.208Z,72.80
2017-06-03T19:57:12.379Z,73.10
2017-06-03T19:59:41.916Z,73.00
2017-06-03T20:02:11.319Z,72.90
2017-06-03T20:04:40.762Z,72.90
2017-06-03T20:07:10.192Z,72.80
2017-06-03T20:09:39.627Z,73.90
2017-06-03T20:12:09.053Z,74.30
2017-06-03T20:14:39.268Z,74.80
2017-06-03T20:17:09.583Z,74.50
2017-06-03T20:19:38.985Z,74.50
2017-06-03T20:22:08.403Z,75.40
2017-06-03T20:24:38.592Z,75.90
2017-06-03T20:27:08.039Z,75.90
2017-06-03T20:29:38.212Z,76.00
2017-06-03T20:32:07.647Z,76.00
2017-06-03T20:34:37.052Z,74.90
2017-06-03T20:37:07.240Z,74.50
2017-06-03T20:39:36.655Z,74.40
2017-06-03T20:42:06.093Z,74.30
2017-06-03T20:44:36.283Z,75.20
2017-06-03T20:47:05.717Z,75.20
2017-06-03T20:49:35.912Z,74.30
2017-06-03T20:52:05.342Z,74.30
2017-06-03T20:54:35.552Z,75.40
2017-06-03T20:57:04.988Z,75.40
2017-06-03T20:59:34.419Z,75.60
2017-06-03T21:02:03.961Z,76.40
2017-06-03T21:04:33.400Z,76.90
2017-06-03T21:07:02.809Z,77.80
2017-06-03T21:09:32.239Z,78.90
2017-06-03T21:12:01.647Z,79.30
2017-06-03T21:14:31.088Z,79.70
2017-06-03T21:17:00.520Z,80.10
2017-06-03T21:19:29.948Z,80.80
2017-06-03T21:21:59.350Z,81.10
2017-06-03T21:24:28.782Z,81.60
2017-06-03T21:26:58.224Z,82.10
2017-06-03T21:29:28.421Z,82.80
2017-06-03T21:31:57.842Z,82.70
2017-06-03T21:34:28.037Z,83.30
2017-06-03T21:36:57.464Z,83.30
2017-06-03T21:39:26.897Z,83.80
2017-06-03T21:41:56.351Z,84.30
2017-06-03T21:44:25.753Z,84.40
2017-06-03T21:46:55.179Z,84.40
2017-06-03T21:49:25.351Z,85.20
2017-06-03T21:51:54.780Z,85.10
2017-06-03T21:54:24.188Z,85.20
2017-06-03T21:56:53.618Z,85.60
2017-06-03T21:59:23.599Z,86.00
2017-06-03T22:01:53.751Z,86.00
2017-06-03T22:04:23.939Z,86.50
2017-06-03T22:06:53.391Z,86.50
2017-06-03T22:09:22.809Z,86.70
2017-06-03T22:11:52.253Z,86.90
2017-06-03T22:14:21.671Z,87.00
2017-06-03T22:16:51.884Z,87.90
2017-06-03T22:19:21.280Z,87.20
2017-06-03T22:21:50.687Z,87.60
2017-06-03T22:24:20.134Z,87.50
2017-06-03T22:26:50.304Z,88.20
2017-06-03T22:29:19.740Z,88.20
2017-06-03T22:31:49.958Z,89.00
2017-06-03T22:34:19.379Z,89.00
2017-06-03T22:36:48.792Z,89.20
2017-06-03T22:39:18.223Z,89.00
2017-06-03T22:41:47.634Z,88.90
2017-06-03T22:44:17.070Z,89.30
2017-06-03T22:46:47.260Z,89.50
2017-06-03T22:49:16.692Z,89.50
2017-06-03T22:51:46.875Z,90.30
2017-06-03T22:54:16.311Z,90.00
2017-06-03T22:56:45.717Z,90.10
2017-06-03T22:59:15.915Z,90.10
2017-06-03T23:01:45.366Z,90.00
2017-06-03T23:04:14.803Z,90.20
2017-06-03T23:06:44.196Z,90.30
2017-06-03T23:09:13.627Z,90.40
2017-06-03T23:11:43.047Z,90.40
2017-06-03T23:14:12.446Z,90.50
2017-06-03T23:16:41.891Z,90.60
2017-06-03T23:19:11.302Z,90.80
2017-06-03T23:21:40.764Z,90.90
2017-06-03T23:24:10.742Z,91.10
2017-06-03T23:26:40.209Z,91.00
2017-06-03T23:29:09.894Z,91.20
2017-06-03T23:31:39.601Z,91.20
2017-06-03T23:34:09.056Z,91.20
2017-06-03T23:36:39.524Z,91.20
2017-06-03T23:39:08.933Z,91.20
2017-06-03T23:41:38.358Z,91.40
2017-06-03T23:44:08.059Z,91.30
2017-06-03T23:46:38.269Z,91.40
2017-06-03T23:49:07.677Z,91.30
2017-06-03T23:51:37.378Z,91.30
2017-06-03T23:54:07.992Z,91.80
2017-06-03T23:56:37.421Z,91.40
2017-06-03T23:59:07.129Z,91.30
